Flight Track Log - Related Links

Times and Time Zones

All times are in EST time to prevent confusion due to time zone crossing. See the SWA1027 flight status page for this flight to view local times or setup timezone preferences in your user account.

Time Position Orientation Groundspeed Altitude Reporting Facility
EST Latitude Longitude Course Direction KTS MPH feet Rate Location/Type
Thu 07:56:55 PM 42.9333 -87.9000 270° West 135 155 1,800  Level KMKE
Thu 07:57:55 PM 42.9333 -87.9667 270° West 227 261 3,800 2,449 Climbing KMKE
Thu 07:59:22 PM 42.9386 -88.0947 273° West 243 280 7,800 3,060 Climbing Chicago Center
Thu 08:00:24 PM 42.9500 -88.1983 279° West 269 310 11,400 3,145 Climbing Chicago Center
Thu 08:01:26 PM 42.9533 -88.3167 272° West 305 351 14,300 2,952 Climbing Chicago Center
Thu 08:02:28 PM 42.9553 -88.4486 271° West 339 390 17,500 2,736 Climbing Chicago Center
Thu 08:03:31 PM 42.9556 -88.5853 270° West 355 409 20,000 2,544 Climbing Chicago Center
Thu 08:04:33 PM 42.9506 -88.7656 268° West 390 449 22,800 2,613 Climbing Chicago Center
Thu 08:05:35 PM 42.9403 -88.9192 265° West 401 461 25,400 2,468 Climbing Chicago Center
Thu 08:06:37 PM 42.8625 -89.0494 231° Southwest 439 505 27,900 1,742 Climbing Chicago Center
Thu 08:07:39 PM 42.7731 -89.1728 225° Southwest 454 522 29,000 1,694 Climbing Chicago Center
Thu 08:08:41 PM 42.6831 -89.2953 225° Southwest 458 527 31,400 1,887 Climbing Chicago Center
Thu 08:09:43 PM 42.5961 -89.4167 226° Southwest 452 520 32,900 1,839 Climbing Chicago Center
Thu 08:10:45 PM 42.4900 -89.5594 225° Southwest 450 518 35,200 1,645 Climbing Chicago Center
Thu 08:11:47 PM 42.4025 -89.6786 225° Southwest 447 514 36,300 1,016 Climbing Chicago Center
Thu 08:12:49 PM 42.3125 -89.7997 225° Southwest 452 520 37,300 1,403 Climbing Chicago Center
Thu 08:13:51 PM 42.2258 -89.9156 225° Southwest 454 522 39,200 1,296 Climbing Chicago Center
Thu 08:14:54 PM 42.1392 -90.0367 226° Southwest 443 510 40,000 384 Climbing Chicago Center
Thu 08:15:56 PM 42.0528 -90.1497 224° Southwest 442 509 40,000  Level Chicago Center
Thu 08:16:58 PM 41.9533 -90.2831 225° Southwest 429 494 40,000  Level Chicago Center
Thu 08:18:00 PM 41.8658 -90.3964 224° Southwest 433 498 40,000  Level Chicago Center
Thu 08:19:02 PM 41.7717 -90.5222 225° Southwest 446 513 40,000  Level Chicago Center
Thu 08:20:04 PM 41.6889 -90.6311 225° Southwest 447 514 40,000  Level Chicago Center
Thu 08:21:06 PM 41.6017 -90.7433 224° Southwest 440 506 40,000  Level Chicago Center
Thu 08:22:08 PM 41.5081 -90.8656 224° Southwest 443 510 40,000  Level Chicago Center
Thu 08:23:10 PM 41.4206 -90.9789 224° Southwest 441 507 40,000  Level Chicago Center
Thu 08:24:12 PM 41.3153 -91.1153 224° Southwest 442 509 40,000  Level Chicago Center
Thu 08:25:14 PM 41.2267 -91.2275 224° Southwest 441 507 40,000  Level Chicago Center
Thu 08:26:17 PM 41.1394 -91.3394 224° Southwest 439 505 40,000  Level Chicago Center
Thu 08:27:19 PM 41.0525 -91.4503 224° Southwest 436 502 40,000  Level Chicago Center
Thu 08:28:21 PM 40.9525 -91.5761 224° Southwest 432 497 40,000  Level Chicago Center
Thu 08:29:23 PM 40.8664 -91.6861 224° Southwest 432 497 40,000 -484 Level Chicago Center
Thu 08:30:25 PM 40.7808 -91.7939 224° Southwest 429 494 39,000 -919 Descending Chicago Center
Thu 08:31:27 PM 40.6933 -91.9028 223° Southwest 434 499 38,100 -953 Descending Chicago Center
Thu 08:32:12 PM 40.6183 -91.9942 223° Southwest 446 513 37,300 -617 Descending Kansas City Center
Thu 08:33:14 PM 40.5269 -92.1089 224° Southwest 453 521 37,000 -581 Descending Kansas City Center
Thu 08:34:16 PM 40.4342 -92.2244 223° Southwest 456 525 36,100 -1,161 Descending Kansas City Center
Thu 08:35:18 PM 40.3317 -92.3511 223° Southwest 471 542 34,600 -1,548 Descending Kansas City Center
Thu 08:36:20 PM 40.2211 -92.4850 223° Southwest 471 542 32,900 -1,452 Descending Kansas City Center
Thu 08:37:22 PM 40.1308 -92.6028 225° Southwest 476 548 31,600 -1,317 Descending Kansas City Center
Thu 08:38:23 PM 40.0767 -92.7436 243° Southwest 456 525 30,200 -1,512 Descending Kansas City Center
Thu 08:39:25 PM 40.0128 -92.9064 243° Southwest 454 522 28,500 -1,790 Descending Kansas City Center
Thu 08:40:27 PM 39.9558 -93.0533 243° Southwest 454 522 26,500 -2,129 Descending Kansas City Center
Thu 08:41:29 PM 39.9003 -93.1925 243° Southwest 442 509 24,100 -2,274 Descending Kansas City Center
Thu 08:42:31 PM 39.8486 -93.3247 243° Southwest 419 482 21,800 -2,177 Descending Kansas City Center
Thu 08:43:33 PM 39.7981 -93.4494 242° Southwest 398 458 19,600 -2,274 Descending Kansas City Center
Thu 08:44:35 PM 39.7414 -93.5950 243° Southwest 384 442 17,100 -2,274 Descending Kansas City Center
Thu 08:45:37 PM 39.6958 -93.7106 243° Southwest 367 422 14,900 -1,887 Descending Kansas City Center
Thu 08:46:39 PM 39.6531 -93.8253 244° Southwest 352 405 13,200 -1,452 Descending Kansas City Center
Thu 08:47:41 PM 39.6256 -93.9525 254° West 332 382 11,900 -1,113 Descending Kansas City Center
Thu 08:48:43 PM 39.6017 -94.0536 253° West 305 351 10,900 -871 Descending Kansas City Center
Thu 08:49:45 PM 39.5758 -94.1639 253° West 288 331 10,100 -1,065 Descending Kansas City Center
Thu 08:50:47 PM 39.5542 -94.2550 253° West 279 321 8,700 -1,306 Descending Kansas City Center
Thu 08:51:49 PM 39.5328 -94.3439 253° West 273 314 7,400 -1,355 Descending Kansas City Center
Thu 08:52:51 PM 39.5061 -94.4425 251° West 263 303 5,900 -1,306 Descending Kansas City Center
Thu 08:53:53 PM 39.4683 -94.5142 236° Southwest 253 291 4,700 -1,258 Descending Kansas City Center
Thu 08:54:55 PM 39.4269 -94.5975 237° Southwest 249 287 3,300 -968 Descending Kansas City Center
Thu 08:55:57 PM 39.3969 -94.6581 237° Southwest 207 238 2,700 -581 Descending Kansas City Center
Thu 08:56:59 PM 39.3578 -94.6858 209° Southwest 148 170 2,100 -581 Descending Kansas City Center
Thu 08:58:01 PM 39.3272 -94.6944 192° South 121 139 1,500 -532 Descending Kansas City Center
Thu 08:59:03 PM 39.2950 -94.7039 193° South 119 137 1,000 -484 Descending Kansas City Center

Login

Don't have an account? Register now (free) for customized features, flight alerts, and more!